createdAt,value
2022-08-07T00:01:44.185Z,66.40
2022-08-07T00:04:09.595Z,66.40
2022-08-07T00:06:45.640Z,66.50
2022-08-07T00:09:21.311Z,66.60
2022-08-07T00:11:55.390Z,66.70
2022-08-07T00:14:25.320Z,66.70
2022-08-07T00:16:58.714Z,66.80
2022-08-07T00:19:34.103Z,67.10
2022-08-07T00:22:12.718Z,67.10
2022-08-07T00:24:51.826Z,67.00
2022-08-07T00:27:18.913Z,67.20
2022-08-07T00:29:49.679Z,67.20
2022-08-07T00:32:18.890Z,67.20
2022-08-07T00:34:55.612Z,67.20
2022-08-07T00:37:22.676Z,67.30
2022-08-07T00:39:54.470Z,67.30
2022-08-07T00:42:28.970Z,67.40
2022-08-07T00:44:55.852Z,67.60
2022-08-07T00:48:07.839Z,67.80
2022-08-07T00:50:21.289Z,67.70
2022-08-07T00:52:57.918Z,67.70
2022-08-07T00:56:00.739Z,67.80
2022-08-07T00:58:12.562Z,67.90
2022-08-07T01:00:53.541Z,67.80
2022-08-07T01:03:54.878Z,67.90
2022-08-07T01:06:10.142Z,68.00
2022-08-07T01:08:51.563Z,68.00
2022-08-07T01:12:10.210Z,68.10
2022-08-07T01:14:09.224Z,68.10
2022-08-07T01:16:36.886Z,68.20
2022-08-07T01:19:18.019Z,68.20
2022-08-07T01:21:48.317Z,68.20
2022-08-07T01:24:21.216Z,68.30
2022-08-07T01:26:51.606Z,68.30
2022-08-07T01:29:19.703Z,68.40
2022-08-07T01:31:48.667Z,68.40
2022-08-07T01:34:18.601Z,68.60
2022-08-07T01:36:52.413Z,68.70
2022-08-07T01:39:24.534Z,68.60
2022-08-07T01:42:38.917Z,68.80
2022-08-07T01:44:53.912Z,68.90
2022-08-07T01:48:18.585Z,69.10
2022-08-07T01:50:13.319Z,69.10
2022-08-07T01:52:49.598Z,69.10
2022-08-07T01:55:26.375Z,69.20
2022-08-07T01:58:06.096Z,69.30
2022-08-07T02:00:50.226Z,69.30
2022-08-07T02:03:32.008Z,69.40
2022-08-07T02:06:31.722Z,69.50
2022-08-07T02:09:04.483Z,69.50
2022-08-07T02:12:03.563Z,69.50
2022-08-07T02:14:35.426Z,69.60
2022-08-07T02:17:06.157Z,69.70
2022-08-07T02:20:05.311Z,69.80
2022-08-07T02:22:31.128Z,70.00
2022-08-07T02:25:00.791Z,69.90
2022-08-07T02:27:34.236Z,69.80
2022-08-07T02:30:07.053Z,70.00
2022-08-07T02:32:39.432Z,70.00
2022-08-07T02:36:28.563Z,70.10
2022-08-07T02:38:14.541Z,70.30
2022-08-07T02:40:50.452Z,70.30
2022-08-07T02:43:20.330Z,70.20
2022-08-07T02:46:01.585Z,70.30
2022-08-07T02:48:29.856Z,70.30
2022-08-07T02:51:01.664Z,70.50
2022-08-07T02:53:34.089Z,70.40
2022-08-07T02:56:21.046Z,70.50
2022-08-07T02:58:54.249Z,70.50
2022-08-07T03:01:35.538Z,70.50
2022-08-07T03:04:07.785Z,70.60
2022-08-07T03:06:41.457Z,70.60
2022-08-07T03:09:11.321Z,70.70
2022-08-07T03:11:52.184Z,70.80
2022-08-07T03:14:26.241Z,70.70
2022-08-07T03:16:55.651Z,70.80
2022-08-07T03:19:23.541Z,70.80
2022-08-07T03:21:56.685Z,70.80
2022-08-07T03:24:26.878Z,70.90
2022-08-07T03:27:00.609Z,70.90
2022-08-07T03:29:33.640Z,71.20
2022-08-07T03:32:03.065Z,71.40
2022-08-07T03:34:31.992Z,71.30
2022-08-07T03:37:12.151Z,71.40
2022-08-07T03:39:59.078Z,71.50
2022-08-07T03:42:29.719Z,71.50
2022-08-07T03:44:58.078Z,71.70
2022-08-07T03:47:28.058Z,71.90
2022-08-07T03:49:58.078Z,72.00
2022-08-07T03:52:28.071Z,72.10
2022-08-07T03:54:57.407Z,72.30
2022-08-07T03:58:33.614Z,72.30
2022-08-07T04:00:30.595Z,72.30
2022-08-07T04:03:04.346Z,72.20
2022-08-07T04:05:39.484Z,72.10
2022-08-07T04:08:16.361Z,72.30
2022-08-07T04:10:54.026Z,72.40
2022-08-07T04:14:10.137Z,72.50
2022-08-07T04:16:30.975Z,72.70
2022-08-07T04:19:01.197Z,72.80
2022-08-07T04:21:33.346Z,72.70
2022-08-07T04:24:07.826Z,72.70
2022-08-07T04:26:35.127Z,72.70
2022-08-07T04:29:03.431Z,72.60
2022-08-07T04:31:39.237Z,72.70
2022-08-07T04:34:24.277Z,72.70
2022-08-07T04:37:01.286Z,72.80
2022-08-07T04:39:35.964Z,72.80
2022-08-07T04:42:03.924Z,72.80
2022-08-07T04:44:32.449Z,72.80
2022-08-07T04:47:08.542Z,72.90
2022-08-07T04:49:57.404Z,72.90
2022-08-07T04:52:50.955Z,72.90
2022-08-07T04:58:07.567Z,72.90
2022-08-07T04:58:33.825Z,73.00
2022-08-07T05:01:29.907Z,73.10
2022-08-07T05:04:08.909Z,73.10
2022-08-07T05:06:53.171Z,73.30
2022-08-07T05:09:43.382Z,73.20
2022-08-07T05:12:27.415Z,73.20
2022-08-07T05:15:23.137Z,73.20
2022-08-07T05:18:00.456Z,73.20
2022-08-07T05:20:34.845Z,73.30
2022-08-07T05:23:15.990Z,73.30
2022-08-07T05:26:10.857Z,73.30
2022-08-07T05:28:34.815Z,73.30
2022-08-07T05:31:03.655Z,73.50
2022-08-07T05:33:37.053Z,73.40
2022-08-07T05:36:06.994Z,73.50
2022-08-07T05:39:01.382Z,73.40
2022-08-07T05:42:00.418Z,73.40
2022-08-07T05:44:18.093Z,73.40
2022-08-07T05:46:57.449Z,73.30
2022-08-07T05:49:40.735Z,73.20
2022-08-07T05:52:11.732Z,73.50
2022-08-07T05:54:44.572Z,73.40
2022-08-07T05:57:26.397Z,73.00
2022-08-07T05:59:58.816Z,72.90
2022-08-07T06:02:30.805Z,72.90
2022-08-07T06:05:03.860Z,72.90
2022-08-07T06:08:13.138Z,72.70
2022-08-07T06:10:19.973Z,72.70
2022-08-07T06:12:47.897Z,72.80
2022-08-07T06:15:19.914Z,72.50
2022-08-07T06:17:53.962Z,72.30
2022-08-07T06:20:31.917Z,72.10
2022-08-07T06:23:45.754Z,72.20
2022-08-07T06:26:02.738Z,71.70
2022-08-07T06:28:29.624Z,71.40
2022-08-07T06:30:58.185Z,71.40
2022-08-07T06:33:26.398Z,71.30
2022-08-07T06:36:11.843Z,71.30
2022-08-07T06:38:58.394Z,71.10
2022-08-07T06:42:00.770Z,70.80
2022-08-07T06:44:21.207Z,70.60
2022-08-07T06:46:53.667Z,70.40
2022-08-07T06:49:50.658Z,70.30
2022-08-07T06:52:32.859Z,70.30
2022-08-07T06:55:32.148Z,70.10
2022-08-07T06:57:57.449Z,69.90
2022-08-07T07:00:27.779Z,69.70
2022-08-07T07:03:01.254Z,69.30
2022-08-07T07:06:04.789Z,69.20
2022-08-07T07:08:29.993Z,68.50
2022-08-07T07:11:00.902Z,68.60
2022-08-07T07:13:56.554Z,68.30
2022-08-07T07:16:27.446Z,68.50
2022-08-07T07:19:04.090Z,67.30
2022-08-07T07:22:11.762Z,67.20
2022-08-07T07:24:32.054Z,67.40
2022-08-07T07:27:03.481Z,67.20
2022-08-07T07:29:57.225Z,66.70
2022-08-07T07:32:25.768Z,66.20
2022-08-07T07:34:59.210Z,66.10
2022-08-07T07:37:47.215Z,65.70
2022-08-07T07:40:21.207Z,65.60
2022-08-07T07:42:55.518Z,65.20
2022-08-07T07:46:38.064Z,65.20
2022-08-07T07:48:34.862Z,64.60
2022-08-07T07:51:08.009Z,64.20
2022-08-07T07:53:50.372Z,64.10
2022-08-07T07:56:30.471Z,63.60
2022-08-07T07:59:00.181Z,63.10
2022-08-07T08:02:05.302Z,63.00
2022-08-07T08:04:20.090Z,62.90
2022-08-07T08:06:54.170Z,62.80
2022-08-07T08:09:25.137Z,62.50
2022-08-07T08:12:03.250Z,62.60
2022-08-07T08:14:32.552Z,62.60
2022-08-07T08:17:56.010Z,62.10
2022-08-07T08:20:18.591Z,62.30
2022-08-07T08:23:01.525Z,61.70
2022-08-07T08:25:52.192Z,61.60
2022-08-07T08:28:38.314Z,61.20
2022-08-07T08:31:15.839Z,60.30
2022-08-07T08:33:49.275Z,60.30
2022-08-07T08:36:18.513Z,61.00
2022-08-07T08:39:01.867Z,60.60
2022-08-07T08:41:57.932Z,60.10
2022-08-07T08:44:36.236Z,60.20
2022-08-07T08:47:21.452Z,60.10
2022-08-07T08:50:04.779Z,59.70
2022-08-07T08:52:40.843Z,59.60
2022-08-07T08:55:54.351Z,58.80
2022-08-07T08:58:20.345Z,59.10
2022-08-07T09:01:00.877Z,58.40
2022-08-07T09:03:49.406Z,58.70
2022-08-07T09:06:29.332Z,58.10
2022-08-07T09:09:03.225Z,58.40
2022-08-07T09:11:53.626Z,58.10
2022-08-07T09:14:33.981Z,57.90
2022-08-07T09:17:10.593Z,57.50
2022-08-07T09:19:55.244Z,57.80
2022-08-07T09:24:33.072Z,56.10
2022-08-07T09:25:53.986Z,55.20
2022-08-07T09:30:02.282Z,56.50
2022-08-07T09:31:38.797Z,55.00
2022-08-07T09:34:17.999Z,56.20
2022-08-07T09:36:57.979Z,56.20
2022-08-07T09:39:54.016Z,56.10
2022-08-07T09:42:40.972Z,55.80
2022-08-07T09:47:23.867Z,55.60
2022-08-07T09:48:14.626Z,55.20
2022-08-07T09:51:01.411Z,53.90
2022-08-07T09:53:41.226Z,55.40
2022-08-07T09:56:39.383Z,55.30
2022-08-07T09:59:44.363Z,55.00
2022-08-07T10:02:34.667Z,55.50
2022-08-07T10:05:29.736Z,53.70
2022-08-07T10:08:42.021Z,55.60
2022-08-07T10:12:01.694Z,54.40
2022-08-07T10:14:30.337Z,54.10
2022-08-07T10:17:23.518Z,54.40
2022-08-07T10:20:12.818Z,54.20
2022-08-07T10:22:57.493Z,54.30
2022-08-07T10:25:44.514Z,53.90
2022-08-07T10:28:49.406Z,53.50
2022-08-07T10:31:50.038Z,53.50
2022-08-07T10:34:33.812Z,54.40
2022-08-07T10:37:13.934Z,53.50
2022-08-07T10:40:03.522Z,53.80
2022-08-07T10:42:42.528Z,53.00
2022-08-07T10:45:19.421Z,53.70
2022-08-07T10:48:16.350Z,53.50
2022-08-07T10:50:50.196Z,54.00
2022-08-07T10:53:27.547Z,53.90
2022-08-07T10:56:03.881Z,53.60
2022-08-07T10:58:48.081Z,54.10
2022-08-07T11:01:51.952Z,53.90
2022-08-07T11:04:38.018Z,53.70
2022-08-07T11:07:24.650Z,53.40
2022-08-07T11:10:08.403Z,53.40
2022-08-07T11:12:45.057Z,53.40
2022-08-07T11:15:31.395Z,53.40
2022-08-07T11:18:10.596Z,53.60
2022-08-07T11:20:51.603Z,53.90
2022-08-07T11:23:30.585Z,53.70
2022-08-07T11:26:13.153Z,53.60
2022-08-07T11:28:53.459Z,52.40
2022-08-07T11:31:35.013Z,53.10
2022-08-07T11:34:17.255Z,53.90
2022-08-07T11:37:00.351Z,53.10
2022-08-07T11:40:00.156Z,53.70
2022-08-07T11:42:39.534Z,53.70
2022-08-07T11:45:20.281Z,52.50
2022-08-07T11:48:13.912Z,53.10
2022-08-07T11:51:12.244Z,53.00
2022-08-07T11:54:22.080Z,52.70
2022-08-07T11:57:05.509Z,52.10
2022-08-07T12:00:12.504Z,52.20
2022-08-07T12:03:42.179Z,51.90
2022-08-07T12:06:38.881Z,51.10
2022-08-07T12:09:23.380Z,51.90
2022-08-07T12:12:09.652Z,51.80
2022-08-07T12:14:55.610Z,52.10
2022-08-07T12:17:39.364Z,52.40
2022-08-07T12:20:29.773Z,52.10
2022-08-07T12:23:17.926Z,52.50
2022-08-07T12:26:23.318Z,52.00
2022-08-07T12:28:56.730Z,51.60
2022-08-07T12:32:01.742Z,51.40
2022-08-07T12:34:31.949Z,51.40
2022-08-07T12:37:01.501Z,50.90
2022-08-07T12:39:43.740Z,50.30
2022-08-07T12:42:27.497Z,50.40
2022-08-07T12:44:58.829Z,50.00
2022-08-07T12:47:33.090Z,50.60
2022-08-07T12:50:38.245Z,51.10
2022-08-07T12:53:17.849Z,51.70
2022-08-07T12:56:03.598Z,50.90
2022-08-07T12:58:37.647Z,50.60
2022-08-07T13:01:18.687Z,51.10
2022-08-07T13:04:04.712Z,50.50
2022-08-07T13:07:00.824Z,50.60
2022-08-07T13:10:19.312Z,50.00
2022-08-07T13:12:50.998Z,50.10
2022-08-07T13:15:33.285Z,50.00
2022-08-07T13:18:25.908Z,50.70
2022-08-07T13:21:04.463Z,51.10
2022-08-07T13:24:00.554Z,49.90
2022-08-07T13:26:35.229Z,49.00
2022-08-07T13:29:10.974Z,49.30
2022-08-07T13:31:57.161Z,49.90
2022-08-07T13:34:37.521Z,49.70
2022-08-07T13:37:19.869Z,49.70
2022-08-07T13:40:35.674Z,50.10
2022-08-07T13:42:50.357Z,49.50
2022-08-07T13:46:07.253Z,49.10
2022-08-07T13:48:10.621Z,48.90
2022-08-07T13:51:01.658Z,49.10
2022-08-07T13:54:01.000Z,48.20
2022-08-07T13:56:20.347Z,48.70
2022-08-07T13:59:10.246Z,48.70
2022-08-07T14:01:59.193Z,48.80
2022-08-07T14:04:36.279Z,49.10
2022-08-07T14:07:09.487Z,47.70
2022-08-07T14:10:01.297Z,48.30
2022-08-07T14:12:36.258Z,47.50
2022-08-07T14:15:19.102Z,47.30
2022-08-07T14:18:23.662Z,47.00
2022-08-07T14:20:48.918Z,47.40
2022-08-07T14:23:59.593Z,47.70
2022-08-07T14:26:28.390Z,47.10
2022-08-07T14:29:06.015Z,47.40
2022-08-07T14:31:56.416Z,47.40
2022-08-07T14:34:29.637Z,46.80
2022-08-07T14:37:01.673Z,47.10
2022-08-07T14:40:16.980Z,47.20
2022-08-07T14:42:27.590Z,47.30
2022-08-07T14:45:22.048Z,48.20
2022-08-07T14:47:58.503Z,47.90
2022-08-07T14:50:28.320Z,48.50
2022-08-07T14:52:56.650Z,49.00
2022-08-07T14:55:35.811Z,49.10
2022-08-07T14:58:27.669Z,49.50
2022-08-07T15:00:55.708Z,49.80
2022-08-07T15:03:52.171Z,49.70
2022-08-07T15:06:23.720Z,50.00
2022-08-07T15:08:54.935Z,50.20
2022-08-07T15:11:53.481Z,50.10
2022-08-07T15:14:16.907Z,50.30
2022-08-07T15:16:55.120Z,50.40
2022-08-07T15:20:30.280Z,50.30
2022-08-07T15:22:29.538Z,50.10
2022-08-07T15:31:05.072Z,49.50
2022-08-07T15:33:36.101Z,48.20
2022-08-07T15:36:07.781Z,48.70
2022-08-07T15:38:58.587Z,49.00
2022-08-07T15:42:45.244Z,48.90
2022-08-07T15:44:19.634Z,48.60
2022-08-07T15:46:52.731Z,48.90
2022-08-07T15:49:25.424Z,48.90
2022-08-07T15:54:26.461Z,47.90
2022-08-07T15:56:59.660Z,48.90
2022-08-07T15:59:39.232Z,48.60
2022-08-07T16:02:08.839Z,49.20
2022-08-07T16:04:40.789Z,48.80
2022-08-07T16:08:29.088Z,48.40
2022-08-07T16:10:14.984Z,48.60
2022-08-07T16:13:01.134Z,49.00
2022-08-07T16:15:57.365Z,48.50
2022-08-07T16:18:49.314Z,48.80
2022-08-07T16:22:01.354Z,49.10
2022-08-07T16:24:34.409Z,49.20
2022-08-07T16:27:17.980Z,49.50
2022-08-07T16:30:09.994Z,49.60
2022-08-07T16:32:59.258Z,49.60
2022-08-07T16:35:51.515Z,49.50
2022-08-07T16:39:01.385Z,49.40
2022-08-07T16:42:12.414Z,49.60
2022-08-07T16:45:31.286Z,49.30
2022-08-07T16:48:27.818Z,49.60
2022-08-07T16:51:13.341Z,49.90
2022-08-07T16:54:08.804Z,50.40
2022-08-07T16:56:53.187Z,50.50
2022-08-07T16:59:44.152Z,50.40
2022-08-07T17:02:51.260Z,50.50
2022-08-07T17:06:19.758Z,50.50
2022-08-07T17:09:08.657Z,50.60
2022-08-07T17:12:05.196Z,50.70
2022-08-07T17:14:37.925Z,50.90
2022-08-07T17:17:14.027Z,50.90
2022-08-07T17:20:02.619Z,51.00
2022-08-07T17:22:38.087Z,51.00
2022-08-07T17:25:20.156Z,51.20
2022-08-07T17:28:13.937Z,51.40
2022-08-07T17:30:58.498Z,51.60
2022-08-07T17:34:09.887Z,51.70
2022-08-07T17:36:26.044Z,52.10
2022-08-07T17:39:01.608Z,52.10
2022-08-07T17:42:01.893Z,52.30
2022-08-07T17:44:45.394Z,52.30
2022-08-07T17:47:38.525Z,52.30
2022-08-07T17:50:19.551Z,52.30
2022-08-07T17:52:59.088Z,52.40
2022-08-07T17:56:00.834Z,52.50
2022-08-07T17:58:30.735Z,52.60
2022-08-07T18:01:20.621Z,52.70
2022-08-07T18:04:16.331Z,52.90
2022-08-07T18:07:19.430Z,53.10
2022-08-07T18:10:05.203Z,53.10
2022-08-07T18:12:40.667Z,53.30
2022-08-07T18:15:16.987Z,53.70
2022-08-07T18:18:36.599Z,53.70
2022-08-07T18:21:11.946Z,53.70
2022-08-07T18:23:50.620Z,54.00
2022-08-07T18:26:40.514Z,54.20
2022-08-07T18:30:04.578Z,54.50
2022-08-07T18:32:21.005Z,54.30
2022-08-07T18:35:09.370Z,54.60
2022-08-07T18:38:56.219Z,54.50
2022-08-07T18:41:17.106Z,54.70
2022-08-07T18:43:57.532Z,55.10
2022-08-07T18:46:33.038Z,55.00
2022-08-07T18:50:30.353Z,55.20
2022-08-07T18:52:10.089Z,55.20
2022-08-07T18:55:42.805Z,55.30
2022-08-07T18:58:33.757Z,55.70
2022-08-07T19:02:17.200Z,55.80
2022-08-07T19:04:09.338Z,55.90
2022-08-07T19:06:49.288Z,56.00
2022-08-07T19:09:57.593Z,56.10
2022-08-07T19:12:26.411Z,56.10
2022-08-07T19:16:03.087Z,56.30
2022-08-07T19:18:06.117Z,56.20
2022-08-07T19:21:09.310Z,56.80
2022-08-07T19:23:57.186Z,56.70
2022-08-07T19:26:28.910Z,56.90
2022-08-07T19:31:05.259Z,57.20
2022-08-07T19:32:10.514Z,57.50
2022-08-07T19:34:41.667Z,57.40
2022-08-07T19:37:17.346Z,57.60
2022-08-07T19:39:57.199Z,57.70
2022-08-07T19:42:26.669Z,57.70
2022-08-07T19:45:08.431Z,58.10
2022-08-07T19:47:41.125Z,58.20
2022-08-07T19:50:41.376Z,58.20
2022-08-07T19:52:58.949Z,58.50
2022-08-07T19:55:57.879Z,58.60
2022-08-07T19:58:16.859Z,58.60
2022-08-07T20:00:54.119Z,58.90
2022-08-07T20:03:35.209Z,59.00
2022-08-07T20:06:06.055Z,59.10
2022-08-07T20:08:37.908Z,59.30
2022-08-07T20:11:09.673Z,59.40
2022-08-07T20:13:45.547Z,59.50
2022-08-07T20:16:32.025Z,59.50
2022-08-07T20:19:10.062Z,59.80
2022-08-07T20:21:42.235Z,59.80
2022-08-07T20:24:17.952Z,60.00
2022-08-07T20:26:52.284Z,60.10
2022-08-07T20:29:48.648Z,60.50
2022-08-07T20:32:23.021Z,60.40
2022-08-07T20:34:54.471Z,60.60
2022-08-07T20:37:25.225Z,60.80
2022-08-07T20:40:02.615Z,60.90
2022-08-07T20:42:33.382Z,61.10
2022-08-07T20:45:04.517Z,61.10
2022-08-07T20:47:58.443Z,61.30
2022-08-07T20:50:28.914Z,61.40
2022-08-07T20:52:58.607Z,61.50
2022-08-07T20:55:25.908Z,61.50
2022-08-07T20:58:02.389Z,61.60
2022-08-07T21:00:42.959Z,61.80
2022-08-07T21:03:15.972Z,61.90
2022-08-07T21:05:53.984Z,62.00
2022-08-07T21:08:37.022Z,62.10
2022-08-07T21:11:10.938Z,62.10
2022-08-07T21:13:57.518Z,62.30
2022-08-07T21:16:34.793Z,62.40
2022-08-07T21:19:09.118Z,62.50
2022-08-07T21:21:57.111Z,62.60
2022-08-07T21:24:42.037Z,62.60
2022-08-07T21:27:22.960Z,62.90
2022-08-07T21:30:04.615Z,62.90
2022-08-07T21:32:46.733Z,63.10
2022-08-07T21:35:34.565Z,63.20
2022-08-07T21:38:21.605Z,63.40
2022-08-07T21:41:09.906Z,63.50
2022-08-07T21:43:55.152Z,63.60
2022-08-07T21:46:31.698Z,63.70
2022-08-07T21:49:14.613Z,63.90
2022-08-07T21:51:54.953Z,63.90
2022-08-07T21:54:32.353Z,64.20
2022-08-07T21:57:31.258Z,64.10
2022-08-07T22:00:07.244Z,64.30
2022-08-07T22:02:53.014Z,64.30
2022-08-07T22:05:45.984Z,64.40
2022-08-07T22:08:14.322Z,64.50
2022-08-07T22:10:54.121Z,64.60
2022-08-07T22:13:52.170Z,64.80
2022-08-07T22:16:43.982Z,64.70
2022-08-07T22:19:08.297Z,64.90
2022-08-07T22:22:04.344Z,65.00
2022-08-07T22:24:34.266Z,65.10
2022-08-07T22:27:06.551Z,65.20
2022-08-07T22:29:48.291Z,65.30
2022-08-07T22:32:24.523Z,65.40
2022-08-07T22:34:54.553Z,65.50
2022-08-07T22:38:04.390Z,65.50
2022-08-07T22:40:26.769Z,65.80
2022-08-07T22:43:01.026Z,65.80
2022-08-07T22:46:40.442Z,65.70
2022-08-07T22:49:02.097Z,65.90
2022-08-07T22:52:19.524Z,66.00
2022-08-07T22:55:30.099Z,66.20
2022-08-07T22:58:42.073Z,66.30
2022-08-07T23:01:26.891Z,66.40
2022-08-07T23:04:29.902Z,66.30
2022-08-07T23:07:39.677Z,66.40
2022-08-07T23:10:37.626Z,66.60
2022-08-07T23:13:20.815Z,66.60
2022-08-07T23:16:44.898Z,66.70
2022-08-07T23:19:16.278Z,66.80
2022-08-07T23:21:52.587Z,66.90
2022-08-07T23:24:38.679Z,66.90
2022-08-07T23:28:20.070Z,67.00
2022-08-07T23:30:42.008Z,67.10
2022-08-07T23:34:22.628Z,67.10
2022-08-07T23:36:32.400Z,67.30
2022-08-07T23:39:08.615Z,67.20
2022-08-07T23:42:01.660Z,67.40
2022-08-07T23:44:51.567Z,67.40
2022-08-07T23:47:42.298Z,67.60
2022-08-07T23:50:41.092Z,67.60
2022-08-07T23:53:45.873Z,67.70
2022-08-07T23:56:20.906Z,67.70
2022-08-07T23:58:58.055Z,67.70
